sensor_id;sensor_type;location;lat;lon;timestamp;P1;durP1;ratioP1;P2;durP2;ratioP2
11269;SDS011;5692;48.956;9.200;2024-01-25T00:02:24;250.18;;;238.23;;
11269;SDS011;5692;48.956;9.200;2024-01-25T00:04:50;238.85;;;227.43;;
11269;SDS011;5692;48.956;9.200;2024-01-25T00:07:16;219.10;;;208.60;;
11269;SDS011;5692;48.956;9.200;2024-01-25T00:09:42;232.45;;;221.32;;
11269;SDS011;5692;48.956;9.200;2024-01-25T00:12:08;227.63;;;216.73;;
11269;SDS011;5692;48.956;9.200;2024-01-25T00:14:34;246.88;;;235.07;;
11269;SDS011;5692;48.956;9.200;2024-01-25T00:17:00;241.33;;;229.80;;
11269;SDS011;5692;48.956;9.200;2024-01-25T00:19:26;220.38;;;209.82;;
11269;SDS011;5692;48.956;9.200;2024-01-25T00:21:52;238.55;;;227.15;;
11269;SDS011;5692;48.956;9.200;2024-01-25T00:24:26;244.18;;;232.48;;
11269;SDS011;5692;48.956;9.200;2024-01-25T00:26:52;241.68;;;230.10;;
11269;SDS011;5692;48.956;9.200;2024-01-25T00:29:21;247.15;;;235.35;;
11269;SDS011;5692;48.956;9.200;2024-01-25T00:31:47;244.80;;;233.10;;
11269;SDS011;5692;48.956;9.200;2024-01-25T00:34:13;241.93;;;230.37;;
11269;SDS011;5692;48.956;9.200;2024-01-25T00:36:39;251.50;;;239.48;;
11269;SDS011;5692;48.956;9.200;2024-01-25T00:39:05;244.80;;;233.10;;
11269;SDS011;5692;48.956;9.200;2024-01-25T00:41:31;242.00;;;230.40;;
11269;SDS011;5692;48.956;9.200;2024-01-25T00:43:58;240.85;;;229.32;;
11269;SDS011;5692;48.956;9.200;2024-01-25T00:46:24;246.57;;;234.77;;
11269;SDS011;5692;48.956;9.200;2024-01-25T00:48:50;236.57;;;225.27;;
11269;SDS011;5692;48.956;9.200;2024-01-25T00:51:21;238.70;;;227.30;;
11269;SDS011;5692;48.956;9.200;2024-01-25T00:53:52;227.63;;;216.73;;
11269;SDS011;5692;48.956;9.200;2024-01-25T00:56:21;232.13;;;221.02;;
11269;SDS011;5692;48.956;9.200;2024-01-25T00:58:47;226.38;;;215.55;;
11269;SDS011;5692;48.956;9.200;2024-01-25T01:01:13;235.00;;;223.77;;
11269;SDS011;5692;48.956;9.200;2024-01-25T01:03:39;218.80;;;208.32;;
11269;SDS011;5692;48.956;9.200;2024-01-25T01:06:06;230.35;;;219.35;;
11269;SDS011;5692;48.956;9.200;2024-01-25T01:08:32;223.30;;;212.60;;
11269;SDS011;5692;48.956;9.200;2024-01-25T01:10:58;221.27;;;210.68;;
11269;SDS011;5692;48.956;9.200;2024-01-25T01:13:24;249.65;;;237.70;;
11269;SDS011;5692;48.956;9.200;2024-01-25T01:15:50;247.75;;;235.90;;
11269;SDS011;5692;48.956;9.200;2024-01-25T01:18:18;250.05;;;238.10;;
11269;SDS011;5692;48.956;9.200;2024-01-25T01:20:44;232.00;;;220.90;;
11269;SDS011;5692;48.956;9.200;2024-01-25T01:23:10;254.27;;;242.10;;
11269;SDS011;5692;48.956;9.200;2024-01-25T01:25:36;254.90;;;242.70;;
11269;SDS011;5692;48.956;9.200;2024-01-25T01:28:02;239.23;;;227.77;;
11269;SDS011;5692;48.956;9.200;2024-01-25T01:30:28;242.30;;;230.70;;
11269;SDS011;5692;48.956;9.200;2024-01-25T01:32:54;248.57;;;236.67;;
11269;SDS011;5692;48.956;9.200;2024-01-25T01:35:20;252.43;;;240.37;;
11269;SDS011;5692;48.956;9.200;2024-01-25T01:37:46;210.87;;;200.77;;
11269;SDS011;5692;48.956;9.200;2024-01-25T01:40:12;223.03;;;212.33;;
11269;SDS011;5692;48.956;9.200;2024-01-25T01:42:38;228.45;;;217.50;;
11269;SDS011;5692;48.956;9.200;2024-01-25T01:45:04;239.15;;;227.70;;
11269;SDS011;5692;48.956;9.200;2024-01-25T01:47:31;236.85;;;225.55;;
11269;SDS011;5692;48.956;9.200;2024-01-25T01:49:57;237.27;;;225.93;;
11269;SDS011;5692;48.956;9.200;2024-01-25T01:52:23;244.85;;;233.15;;
11269;SDS011;5692;48.956;9.200;2024-01-25T01:54:49;239.48;;;228.02;;
11269;SDS011;5692;48.956;9.200;2024-01-25T01:57:15;226.20;;;215.40;;
11269;SDS011;5692;48.956;9.200;2024-01-25T01:59:41;249.25;;;237.35;;
11269;SDS011;5692;48.956;9.200;2024-01-25T02:02:07;242.23;;;230.65;;
11269;SDS011;5692;48.956;9.200;2024-01-25T02:04:39;235.63;;;224.32;;
11269;SDS011;5692;48.956;9.200;2024-01-25T02:07:05;230.20;;;219.20;;
11269;SDS011;5692;48.956;9.200;2024-01-25T02:09:32;231.27;;;220.18;;
11269;SDS011;5692;48.956;9.200;2024-01-25T02:12:01;229.93;;;218.93;;
11269;SDS011;5692;48.956;9.200;2024-01-25T02:14:27;239.98;;;228.48;;
11269;SDS011;5692;48.956;9.200;2024-01-25T02:16:53;246.25;;;234.48;;
11269;SDS011;5692;48.956;9.200;2024-01-25T02:19:22;252.48;;;240.38;;
11269;SDS011;5692;48.956;9.200;2024-01-25T02:21:48;235.88;;;224.60;;
11269;SDS011;5692;48.956;9.200;2024-01-25T02:24:18;246.95;;;235.15;;
11269;SDS011;5692;48.956;9.200;2024-01-25T02:26:44;239.05;;;227.63;;
11269;SDS011;5692;48.956;9.200;2024-01-25T02:29:10;232.98;;;221.82;;
11269;SDS011;5692;48.956;9.200;2024-01-25T02:31:36;238.90;;;227.50;;
11269;SDS011;5692;48.956;9.200;2024-01-25T02:34:02;240.40;;;228.90;;
11269;SDS011;5692;48.956;9.200;2024-01-25T02:36:28;240.30;;;228.83;;
11269;SDS011;5692;48.956;9.200;2024-01-25T02:38:54;233.77;;;222.57;;
11269;SDS011;5692;48.956;9.200;2024-01-25T02:41:20;244.65;;;232.95;;
11269;SDS011;5692;48.956;9.200;2024-01-25T02:43:46;221.98;;;211.35;;
11269;SDS011;5692;48.956;9.200;2024-01-25T02:46:12;231.15;;;220.07;;
11269;SDS011;5692;48.956;9.200;2024-01-25T02:48:38;244.07;;;232.38;;
11269;SDS011;5692;48.956;9.200;2024-01-25T02:51:04;237.50;;;226.13;;
11269;SDS011;5692;48.956;9.200;2024-01-25T02:53:30;239.55;;;228.07;;
11269;SDS011;5692;48.956;9.200;2024-01-25T02:55:56;257.60;;;245.30;;
11269;SDS011;5692;48.956;9.200;2024-01-25T02:58:22;254.35;;;242.20;;
11269;SDS011;5692;48.956;9.200;2024-01-25T03:00:48;222.68;;;212.00;;
11269;SDS011;5692;48.956;9.200;2024-01-25T03:03:14;221.43;;;210.82;;
11269;SDS011;5692;48.956;9.200;2024-01-25T03:05:41;232.77;;;221.68;;
11269;SDS011;5692;48.956;9.200;2024-01-25T03:08:10;243.75;;;232.10;;
11269;SDS011;5692;48.956;9.200;2024-01-25T03:10:36;238.43;;;227.02;;
11269;SDS011;5692;48.956;9.200;2024-01-25T03:13:02;247.75;;;235.90;;
11269;SDS011;5692;48.956;9.200;2024-01-25T03:15:28;223.70;;;213.00;;
11269;SDS011;5692;48.956;9.200;2024-01-25T03:17:54;243.80;;;232.13;;
11269;SDS011;5692;48.956;9.200;2024-01-25T03:20:20;235.03;;;223.80;;
11269;SDS011;5692;48.956;9.200;2024-01-25T03:22:46;245.30;;;233.60;;
11269;SDS011;5692;48.956;9.200;2024-01-25T03:25:12;244.80;;;233.10;;
11269;SDS011;5692;48.956;9.200;2024-01-25T03:27:40;254.13;;;241.98;;
11269;SDS011;5692;48.956;9.200;2024-01-25T03:30:07;233.50;;;222.35;;
11269;SDS011;5692;48.956;9.200;2024-01-25T03:32:35;249.68;;;237.73;;
11269;SDS011;5692;48.956;9.200;2024-01-25T03:35:01;240.20;;;228.70;;
11269;SDS011;5692;48.956;9.200;2024-01-25T03:37:30;243.32;;;231.70;;
11269;SDS011;5692;48.956;9.200;2024-01-25T03:39:56;216.63;;;206.27;;
11269;SDS011;5692;48.956;9.200;2024-01-25T03:42:22;225.38;;;214.60;;
11269;SDS011;5692;48.956;9.200;2024-01-25T03:44:48;231.18;;;220.13;;
11269;SDS011;5692;48.956;9.200;2024-01-25T03:47:14;231.77;;;220.68;;
11269;SDS011;5692;48.956;9.200;2024-01-25T03:49:40;219.70;;;209.20;;
11269;SDS011;5692;48.956;9.200;2024-01-25T03:52:06;228.13;;;217.23;;
11269;SDS011;5692;48.956;9.200;2024-01-25T03:54:32;234.57;;;223.38;;
11269;SDS011;5692;48.956;9.200;2024-01-25T03:57:00;238.35;;;226.95;;
11269;SDS011;5692;48.956;9.200;2024-01-25T03:59:26;244.05;;;232.38;;
11269;SDS011;5692;48.956;9.200;2024-01-25T04:01:52;229.82;;;218.82;;
11269;SDS011;5692;48.956;9.200;2024-01-25T04:04:18;218.00;;;207.55;;
11269;SDS011;5692;48.956;9.200;2024-01-25T04:06:44;243.70;;;232.00;;
11269;SDS011;5692;48.956;9.200;2024-01-25T04:09:12;231.10;;;220.05;;
11269;SDS011;5692;48.956;9.200;2024-01-25T04:11:38;257.27;;;244.98;;
11269;SDS011;5692;48.956;9.200;2024-01-25T04:14:04;242.10;;;230.50;;
11269;SDS011;5692;48.956;9.200;2024-01-25T04:16:31;224.50;;;213.75;;
11269;SDS011;5692;48.956;9.200;2024-01-25T04:19:00;234.13;;;222.93;;
11269;SDS011;5692;48.956;9.200;2024-01-25T04:21:26;245.18;;;233.45;;
11269;SDS011;5692;48.956;9.200;2024-01-25T04:23:52;249.23;;;237.32;;
11269;SDS011;5692;48.956;9.200;2024-01-25T04:26:18;229.30;;;218.32;;
11269;SDS011;5692;48.956;9.200;2024-01-25T04:28:44;223.32;;;212.65;;
11269;SDS011;5692;48.956;9.200;2024-01-25T04:31:11;212.48;;;202.27;;
11269;SDS011;5692;48.956;9.200;2024-01-25T04:33:39;230.73;;;219.70;;
11269;SDS011;5692;48.956;9.200;2024-01-25T04:36:05;218.90;;;208.43;;
11269;SDS011;5692;48.956;9.200;2024-01-25T04:38:31;209.15;;;199.15;;
11269;SDS011;5692;48.956;9.200;2024-01-25T04:40:57;228.25;;;217.32;;
11269;SDS011;5692;48.956;9.200;2024-01-25T04:43:26;235.80;;;224.52;;
11269;SDS011;5692;48.956;9.200;2024-01-25T04:45:52;239.95;;;228.48;;
11269;SDS011;5692;48.956;9.200;2024-01-25T04:48:18;240.82;;;229.32;;
11269;SDS011;5692;48.956;9.200;2024-01-25T04:50:44;210.98;;;200.88;;
11269;SDS011;5692;48.956;9.200;2024-01-25T04:53:10;228.43;;;217.52;;
11269;SDS011;5692;48.956;9.200;2024-01-25T04:55:36;219.47;;;208.97;;
11269;SDS011;5692;48.956;9.200;2024-01-25T04:58:02;226.80;;;215.97;;
11269;SDS011;5692;48.956;9.200;2024-01-25T05:00:28;236.20;;;224.90;;
11269;SDS011;5692;48.956;9.200;2024-01-25T05:02:54;228.43;;;217.52;;
11269;SDS011;5692;48.956;9.200;2024-01-25T05:05:20;223.03;;;212.33;;
11269;SDS011;5692;48.956;9.200;2024-01-25T05:07:46;236.68;;;225.35;;
11269;SDS011;5692;48.956;9.200;2024-01-25T05:10:12;228.13;;;217.23;;
11269;SDS011;5692;48.956;9.200;2024-01-25T05:12:38;236.70;;;225.40;;
11269;SDS011;5692;48.956;9.200;2024-01-25T05:15:04;227.67;;;216.80;;
11269;SDS011;5692;48.956;9.200;2024-01-25T05:17:30;233.32;;;222.15;;
11269;SDS011;5692;48.956;9.200;2024-01-25T05:19:59;226.20;;;215.38;;
11269;SDS011;5692;48.956;9.200;2024-01-25T05:22:25;246.80;;;235.00;;
11269;SDS011;5692;48.956;9.200;2024-01-25T05:24:51;230.88;;;219.85;;
11269;SDS011;5692;48.956;9.200;2024-01-25T05:27:17;232.82;;;221.70;;
11269;SDS011;5692;48.956;9.200;2024-01-25T05:29:43;240.52;;;229.02;;
11269;SDS011;5692;48.956;9.200;2024-01-25T05:32:09;224.52;;;213.77;;
11269;SDS011;5692;48.956;9.200;2024-01-25T05:34:35;222.73;;;212.07;;
11269;SDS011;5692;48.956;9.200;2024-01-25T05:37:01;210.15;;;200.10;;
11269;SDS011;5692;48.956;9.200;2024-01-25T05:39:27;223.55;;;212.85;;
11269;SDS011;5692;48.956;9.200;2024-01-25T05:41:53;189.35;;;180.27;;
11269;SDS011;5692;48.956;9.200;2024-01-25T05:44:19;190.02;;;180.93;;
11269;SDS011;5692;48.956;9.200;2024-01-25T05:46:45;183.20;;;174.40;;
11269;SDS011;5692;48.956;9.200;2024-01-25T05:49:11;191.30;;;182.15;;
11269;SDS011;5692;48.956;9.200;2024-01-25T05:51:55;174.10;;;165.75;;
11269;SDS011;5692;48.956;9.200;2024-01-25T05:54:26;214.48;;;204.23;;
11269;SDS011;5692;48.956;9.200;2024-01-25T05:56:55;192.65;;;183.43;;
11269;SDS011;5692;48.956;9.200;2024-01-25T05:59:29;193.32;;;184.02;;
11269;SDS011;5692;48.956;9.200;2024-01-25T06:01:55;190.27;;;181.18;;
11269;SDS011;5692;48.956;9.200;2024-01-25T06:04:24;191.55;;;182.38;;
11269;SDS011;5692;48.956;9.200;2024-01-25T06:07:11;190.38;;;181.27;;
11269;SDS011;5692;48.956;9.200;2024-01-25T06:09:39;200.35;;;190.75;;
11269;SDS011;5692;48.956;9.200;2024-01-25T06:12:14;194.00;;;184.70;;
11269;SDS011;5692;48.956;9.200;2024-01-25T06:14:51;188.82;;;179.80;;
11269;SDS011;5692;48.956;9.200;2024-01-25T06:17:27;191.18;;;182.02;;
11269;SDS011;5692;48.956;9.200;2024-01-25T06:19:53;190.20;;;181.10;;
11269;SDS011;5692;48.956;9.200;2024-01-25T06:22:21;205.15;;;195.35;;
11269;SDS011;5692;48.956;9.200;2024-01-25T06:24:50;195.75;;;186.38;;
11269;SDS011;5692;48.956;9.200;2024-01-25T06:27:16;192.30;;;183.10;;
11269;SDS011;5692;48.956;9.200;2024-01-25T06:29:42;209.98;;;199.93;;
11269;SDS011;5692;48.956;9.200;2024-01-25T06:32:11;194.38;;;185.07;;
11269;SDS011;5692;48.956;9.200;2024-01-25T06:34:37;201.32;;;191.68;;
11269;SDS011;5692;48.956;9.200;2024-01-25T06:37:03;212.43;;;202.27;;
11269;SDS011;5692;48.956;9.200;2024-01-25T06:39:31;212.98;;;202.77;;
11269;SDS011;5692;48.956;9.200;2024-01-25T06:42:08;225.75;;;214.95;;
11269;SDS011;5692;48.956;9.200;2024-01-25T06:44:37;195.63;;;186.25;;
11269;SDS011;5692;48.956;9.200;2024-01-25T06:47:05;204.82;;;195.02;;
11269;SDS011;5692;48.956;9.200;2024-01-25T06:49:34;215.80;;;205.48;;
11269;SDS011;5692;48.956;9.200;2024-01-25T06:52:07;207.60;;;197.70;;
11269;SDS011;5692;48.956;9.200;2024-01-25T06:54:54;234.07;;;222.88;;
11269;SDS011;5692;48.956;9.200;2024-01-25T06:57:23;254.15;;;242.00;;
11269;SDS011;5692;48.956;9.200;2024-01-25T06:59:49;252.60;;;240.52;;
11269;SDS011;5692;48.956;9.200;2024-01-25T07:02:15;254.48;;;242.27;;
11269;SDS011;5692;48.956;9.200;2024-01-25T07:04:43;256.05;;;243.82;;
11269;SDS011;5692;48.956;9.200;2024-01-25T07:07:09;238.82;;;227.40;;
11269;SDS011;5692;48.956;9.200;2024-01-25T07:09:35;243.73;;;232.07;;
11269;SDS011;5692;48.956;9.200;2024-01-25T07:12:01;240.90;;;229.38;;
11269;SDS011;5692;48.956;9.200;2024-01-25T07:14:30;243.70;;;232.05;;
11269;SDS011;5692;48.956;9.200;2024-01-25T07:17:03;252.93;;;240.82;;
11269;SDS011;5692;48.956;9.200;2024-01-25T07:19:29;241.48;;;229.93;;
11269;SDS011;5692;48.956;9.200;2024-01-25T07:21:58;235.30;;;224.03;;
11269;SDS011;5692;48.956;9.200;2024-01-25T07:24:24;250.02;;;238.07;;
11269;SDS011;5692;48.956;9.200;2024-01-25T07:26:51;241.27;;;229.73;;
11269;SDS011;5692;48.956;9.200;2024-01-25T07:29:17;225.02;;;214.25;;
11269;SDS011;5692;48.956;9.200;2024-01-25T07:31:43;254.55;;;242.38;;
11269;SDS011;5692;48.956;9.200;2024-01-25T07:34:09;252.10;;;240.05;;
11269;SDS011;5692;48.956;9.200;2024-01-25T07:36:35;247.93;;;236.05;;
11269;SDS011;5692;48.956;9.200;2024-01-25T07:39:04;244.93;;;233.23;;
11269;SDS011;5692;48.956;9.200;2024-01-25T07:41:40;252.05;;;239.98;;
11269;SDS011;5692;48.956;9.200;2024-01-25T07:44:16;239.88;;;228.38;;
11269;SDS011;5692;48.956;9.200;2024-01-25T07:49:40;239.20;;;227.75;;
11269;SDS011;5692;48.956;9.200;2024-01-25T07:52:23;238.95;;;227.55;;
11269;SDS011;5692;48.956;9.200;2024-01-25T07:54:50;248.05;;;236.20;;
11269;SDS011;5692;48.956;9.200;2024-01-25T07:57:21;227.35;;;216.45;;
11269;SDS011;5692;48.956;9.200;2024-01-25T07:59:47;235.38;;;224.10;;
11269;SDS011;5692;48.956;9.200;2024-01-25T08:02:13;232.73;;;221.57;;
11269;SDS011;5692;48.956;9.200;2024-01-25T08:04:46;238.65;;;227.25;;
11269;SDS011;5692;48.956;9.200;2024-01-25T08:07:12;227.05;;;216.20;;
11269;SDS011;5692;48.956;9.200;2024-01-25T08:09:38;233.98;;;222.77;;
11269;SDS011;5692;48.956;9.200;2024-01-25T08:12:06;240.88;;;229.35;;
11269;SDS011;5692;48.956;9.200;2024-01-25T08:14:32;234.50;;;223.27;;
11269;SDS011;5692;48.956;9.200;2024-01-25T08:16:59;231.15;;;220.10;;
11269;SDS011;5692;48.956;9.200;2024-01-25T08:19:27;239.90;;;228.40;;
11269;SDS011;5692;48.956;9.200;2024-01-25T08:21:56;233.65;;;222.45;;
11269;SDS011;5692;48.956;9.200;2024-01-25T08:24:24;257.15;;;244.85;;
11269;SDS011;5692;48.956;9.200;2024-01-25T08:26:52;236.57;;;225.27;;
11269;SDS011;5692;48.956;9.200;2024-01-25T08:29:21;250.25;;;238.30;;
11269;SDS011;5692;48.956;9.200;2024-01-25T08:31:47;270.85;;;257.90;;
11269;SDS011;5692;48.956;9.200;2024-01-25T08:34:16;259.08;;;246.68;;
11269;SDS011;5692;48.956;9.200;2024-01-25T08:36:42;236.65;;;225.32;;
11269;SDS011;5692;48.956;9.200;2024-01-25T08:39:23;244.88;;;233.18;;
11269;SDS011;5692;48.956;9.200;2024-01-25T08:41:51;239.30;;;227.85;;
11269;SDS011;5692;48.956;9.200;2024-01-25T08:44:21;236.40;;;225.10;;
11269;SDS011;5692;48.956;9.200;2024-01-25T08:46:52;254.40;;;242.23;;
11269;SDS011;5692;48.956;9.200;2024-01-25T08:49:18;247.15;;;235.32;;
11269;SDS011;5692;48.956;9.200;2024-01-25T08:51:47;238.48;;;227.07;;
11269;SDS011;5692;48.956;9.200;2024-01-25T08:54:15;228.55;;;217.63;;
11269;SDS011;5692;48.956;9.200;2024-01-25T08:56:51;240.82;;;229.30;;
11269;SDS011;5692;48.956;9.200;2024-01-25T08:59:30;227.13;;;216.25;;
11269;SDS011;5692;48.956;9.200;2024-01-25T09:01:57;236.07;;;224.77;;
11269;SDS011;5692;48.956;9.200;2024-01-25T09:04:24;239.27;;;227.82;;
11269;SDS011;5692;48.956;9.200;2024-01-25T09:06:52;244.13;;;232.48;;
11269;SDS011;5692;48.956;9.200;2024-01-25T09:09:36;250.30;;;238.32;;
11269;SDS011;5692;48.956;9.200;2024-01-25T09:12:07;254.85;;;242.65;;
11269;SDS011;5692;48.956;9.200;2024-01-25T09:14:38;264.75;;;252.07;;
11269;SDS011;5692;48.956;9.200;2024-01-25T09:17:04;256.95;;;244.65;;
11269;SDS011;5692;48.956;9.200;2024-01-25T09:19:31;244.10;;;232.43;;
11269;SDS011;5692;48.956;9.200;2024-01-25T09:21:59;252.68;;;240.60;;
11269;SDS011;5692;48.956;9.200;2024-01-25T09:24:31;250.73;;;238.73;;
11269;SDS011;5692;48.956;9.200;2024-01-25T09:27:02;254.85;;;242.65;;
11269;SDS011;5692;48.956;9.200;2024-01-25T09:29:37;233.48;;;222.27;;
11269;SDS011;5692;48.956;9.200;2024-01-25T09:32:06;238.48;;;227.07;;
11269;SDS011;5692;48.956;9.200;2024-01-25T09:34:33;242.80;;;231.20;;
11269;SDS011;5692;48.956;9.200;2024-01-25T09:36:59;220.82;;;210.25;;
11269;SDS011;5692;48.956;9.200;2024-01-25T09:39:25;233.38;;;222.20;;
11269;SDS011;5692;48.956;9.200;2024-01-25T09:41:51;228.45;;;217.52;;
11269;SDS011;5692;48.956;9.200;2024-01-25T09:44:19;222.88;;;212.18;;
11269;SDS011;5692;48.956;9.200;2024-01-25T09:46:51;220.07;;;209.52;;
11269;SDS011;5692;48.956;9.200;2024-01-25T09:49:17;216.13;;;205.77;;
11269;SDS011;5692;48.956;9.200;2024-01-25T09:51:46;223.73;;;213.02;;
11269;SDS011;5692;48.956;9.200;2024-01-25T09:54:13;229.07;;;218.10;;
11269;SDS011;5692;48.956;9.200;2024-01-25T09:56:39;232.85;;;221.73;;
11269;SDS011;5692;48.956;9.200;2024-01-25T09:59:07;236.02;;;224.73;;
11269;SDS011;5692;48.956;9.200;2024-01-25T10:01:34;248.63;;;236.73;;
11269;SDS011;5692;48.956;9.200;2024-01-25T10:04:06;227.15;;;216.27;;
11269;SDS011;5692;48.956;9.200;2024-01-25T10:06:34;225.85;;;215.05;;
11269;SDS011;5692;48.956;9.200;2024-01-25T10:09:00;223.15;;;212.48;;
11269;SDS011;5692;48.956;9.200;2024-01-25T10:11:27;227.80;;;216.90;;
11269;SDS011;5692;48.956;9.200;2024-01-25T10:13:58;225.07;;;214.27;;
11269;SDS011;5692;48.956;9.200;2024-01-25T10:16:26;224.65;;;213.90;;
11269;SDS011;5692;48.956;9.200;2024-01-25T10:18:52;220.30;;;209.77;;
11269;SDS011;5692;48.956;9.200;2024-01-25T10:21:20;224.60;;;213.87;;
11269;SDS011;5692;48.956;9.200;2024-01-25T10:23:46;216.98;;;206.57;;
11269;SDS011;5692;48.956;9.200;2024-01-25T10:26:12;238.15;;;226.75;;
11269;SDS011;5692;48.956;9.200;2024-01-25T10:29:34;221.73;;;211.13;;
11269;SDS011;5692;48.956;9.200;2024-01-25T10:32:00;230.43;;;219.40;;
11269;SDS011;5692;48.956;9.200;2024-01-25T10:34:27;227.55;;;216.65;;
11269;SDS011;5692;48.956;9.200;2024-01-25T10:36:53;242.52;;;230.93;;
11269;SDS011;5692;48.956;9.200;2024-01-25T10:39:19;218.68;;;208.18;;
11269;SDS011;5692;48.956;9.200;2024-01-25T10:41:47;252.80;;;240.73;;
11269;SDS011;5692;48.956;9.200;2024-01-25T10:44:18;254.63;;;242.45;;
11269;SDS011;5692;48.956;9.200;2024-01-25T10:46:48;238.50;;;227.10;;
11269;SDS011;5692;48.956;9.200;2024-01-25T10:49:14;225.10;;;214.32;;
11269;SDS011;5692;48.956;9.200;2024-01-25T10:51:41;217.95;;;207.55;;
11269;SDS011;5692;48.956;9.200;2024-01-25T10:54:07;224.68;;;213.93;;
11269;SDS011;5692;48.956;9.200;2024-01-25T10:56:52;231.43;;;220.32;;
11269;SDS011;5692;48.956;9.200;2024-01-25T10:59:18;221.57;;;210.98;;
11269;SDS011;5692;48.956;9.200;2024-01-25T11:01:45;226.35;;;215.50;;
11269;SDS011;5692;48.956;9.200;2024-01-25T11:04:17;225.10;;;214.35;;
11269;SDS011;5692;48.956;9.200;2024-01-25T11:06:44;249.95;;;238.00;;
11269;SDS011;5692;48.956;9.200;2024-01-25T11:09:11;236.45;;;225.15;;
11269;SDS011;5692;48.956;9.200;2024-01-25T11:11:43;231.77;;;220.68;;
11269;SDS011;5692;48.956;9.200;2024-01-25T11:14:13;225.38;;;214.57;;
11269;SDS011;5692;48.956;9.200;2024-01-25T11:16:39;226.60;;;215.75;;
11269;SDS011;5692;48.956;9.200;2024-01-25T11:19:19;220.65;;;210.10;;
11269;SDS011;5692;48.956;9.200;2024-01-25T11:21:45;234.98;;;223.73;;
11269;SDS011;5692;48.956;9.200;2024-01-25T11:24:13;227.60;;;216.73;;
11269;SDS011;5692;48.956;9.200;2024-01-25T11:26:39;236.35;;;225.05;;
11269;SDS011;5692;48.956;9.200;2024-01-25T11:29:05;209.60;;;199.60;;
11269;SDS011;5692;48.956;9.200;2024-01-25T11:31:31;211.82;;;201.73;;
11269;SDS011;5692;48.956;9.200;2024-01-25T11:34:00;226.85;;;216.00;;
11269;SDS011;5692;48.956;9.200;2024-01-25T11:36:29;221.20;;;210.60;;
11269;SDS011;5692;48.956;9.200;2024-01-25T11:38:55;251.02;;;239.02;;
11269;SDS011;5692;48.956;9.200;2024-01-25T11:41:22;244.50;;;232.80;;
11269;SDS011;5692;48.956;9.200;2024-01-25T11:43:49;212.77;;;202.57;;
11269;SDS011;5692;48.956;9.200;2024-01-25T11:46:15;219.93;;;209.40;;
11269;SDS011;5692;48.956;9.200;2024-01-25T11:48:41;244.52;;;232.82;;
11269;SDS011;5692;48.956;9.200;2024-01-25T11:51:10;257.55;;;245.23;;
11269;SDS011;5692;48.956;9.200;2024-01-25T11:53:38;238.60;;;227.18;;
11269;SDS011;5692;48.956;9.200;2024-01-25T11:56:05;264.08;;;251.48;;
11269;SDS011;5692;48.956;9.200;2024-01-25T11:58:32;257.92;;;245.63;;
11269;SDS011;5692;48.956;9.200;2024-01-25T12:00:58;261.08;;;248.57;;
11269;SDS011;5692;48.956;9.200;2024-01-25T12:03:25;260.52;;;248.07;;
11269;SDS011;5692;48.956;9.200;2024-01-25T12:05:51;248.63;;;236.73;;
11269;SDS011;5692;48.956;9.200;2024-01-25T12:08:17;235.48;;;224.18;;
11269;SDS011;5692;48.956;9.200;2024-01-25T12:10:43;237.90;;;226.50;;
11269;SDS011;5692;48.956;9.200;2024-01-25T12:13:09;250.23;;;238.25;;
11269;SDS011;5692;48.956;9.200;2024-01-25T12:15:35;246.65;;;234.85;;
11269;SDS011;5692;48.956;9.200;2024-01-25T12:18:02;252.40;;;240.35;;
11269;SDS011;5692;48.956;9.200;2024-01-25T12:20:28;253.32;;;241.23;;
11269;SDS011;5692;48.956;9.200;2024-01-25T12:22:54;263.42;;;250.82;;
11269;SDS011;5692;48.956;9.200;2024-01-25T12:25:20;279.65;;;266.27;;
11269;SDS011;5692;48.956;9.200;2024-01-25T12:27:47;285.45;;;271.83;;
11269;SDS011;5692;48.956;9.200;2024-01-25T12:30:15;266.65;;;253.90;;
11269;SDS011;5692;48.956;9.200;2024-01-25T12:32:41;273.92;;;260.85;;
11269;SDS011;5692;48.956;9.200;2024-01-25T12:35:07;263.33;;;250.73;;
11269;SDS011;5692;48.956;9.200;2024-01-25T12:37:33;253.32;;;241.23;;
11269;SDS011;5692;48.956;9.200;2024-01-25T12:40:00;263.50;;;250.90;;
11269;SDS011;5692;48.956;9.200;2024-01-25T12:42:26;272.67;;;259.63;;
11269;SDS011;5692;48.956;9.200;2024-01-25T12:44:52;261.60;;;249.10;;
11269;SDS011;5692;48.956;9.200;2024-01-25T12:47:21;257.65;;;245.32;;
11269;SDS011;5692;48.956;9.200;2024-01-25T12:49:47;268.73;;;255.88;;
11269;SDS011;5692;48.956;9.200;2024-01-25T12:52:14;273.05;;;260.00;;
11269;SDS011;5692;48.956;9.200;2024-01-25T12:54:41;260.23;;;247.77;;
11269;SDS011;5692;48.956;9.200;2024-01-25T12:57:07;262.52;;;249.98;;
11269;SDS011;5692;48.956;9.200;2024-01-25T12:59:33;259.23;;;246.82;;
11269;SDS011;5692;48.956;9.200;2024-01-25T13:02:00;248.00;;;236.15;;
11269;SDS011;5692;48.956;9.200;2024-01-25T13:04:26;260.95;;;248.45;;
11269;SDS011;5692;48.956;9.200;2024-01-25T13:06:53;252.75;;;240.65;;
11269;SDS011;5692;48.956;9.200;2024-01-25T13:09:22;271.33;;;258.35;;
11269;SDS011;5692;48.956;9.200;2024-01-25T13:11:51;265.55;;;252.85;;
11269;SDS011;5692;48.956;9.200;2024-01-25T13:14:17;263.52;;;250.95;;
11269;SDS011;5692;48.956;9.200;2024-01-25T13:16:43;268.30;;;255.48;;
11269;SDS011;5692;48.956;9.200;2024-01-25T13:19:09;259.98;;;247.52;;
11269;SDS011;5692;48.956;9.200;2024-01-25T13:21:39;273.77;;;260.67;;
11269;SDS011;5692;48.956;9.200;2024-01-25T13:24:05;269.50;;;256.60;;
11269;SDS011;5692;48.956;9.200;2024-01-25T13:26:35;281.88;;;268.40;;
11269;SDS011;5692;48.956;9.200;2024-01-25T13:29:01;261.67;;;249.18;;
11269;SDS011;5692;48.956;9.200;2024-01-25T13:31:27;282.67;;;269.17;;
11269;SDS011;5692;48.956;9.200;2024-01-25T13:33:53;296.27;;;282.13;;
11269;SDS011;5692;48.956;9.200;2024-01-25T13:36:19;292.02;;;278.08;;
11269;SDS011;5692;48.956;9.200;2024-01-25T13:38:45;311.77;;;296.88;;
11269;SDS011;5692;48.956;9.200;2024-01-25T13:41:11;305.57;;;290.97;;
11269;SDS011;5692;48.956;9.200;2024-01-25T13:43:37;288.37;;;274.57;;
11269;SDS011;5692;48.956;9.200;2024-01-25T13:46:03;282.13;;;268.63;;
11269;SDS011;5692;48.956;9.200;2024-01-25T13:48:29;269.80;;;256.90;;
11269;SDS011;5692;48.956;9.200;2024-01-25T13:50:58;291.60;;;277.65;;
11269;SDS011;5692;48.956;9.200;2024-01-25T13:53:24;291.77;;;277.83;;
11269;SDS011;5692;48.956;9.200;2024-01-25T13:55:50;297.97;;;283.73;;
11269;SDS011;5692;48.956;9.200;2024-01-25T13:58:16;280.75;;;267.33;;
11269;SDS011;5692;48.956;9.200;2024-01-25T14:00:42;283.70;;;270.15;;
11269;SDS011;5692;48.956;9.200;2024-01-25T14:03:08;329.40;;;313.65;;
11269;SDS011;5692;48.956;9.200;2024-01-25T14:05:36;317.52;;;302.35;;
11269;SDS011;5692;48.956;9.200;2024-01-25T14:08:02;324.80;;;309.30;;
11269;SDS011;5692;48.956;9.200;2024-01-25T14:10:28;333.17;;;317.25;;
11269;SDS011;5692;48.956;9.200;2024-01-25T14:12:54;316.27;;;301.17;;
11269;SDS011;5692;48.956;9.200;2024-01-25T14:15:21;318.00;;;302.80;;